createdAt,value
2018-07-09T00:01:39.849Z,86.91
2018-07-09T00:04:09.008Z,86.60
2018-07-09T00:06:38.285Z,87.31
2018-07-09T00:09:07.582Z,88.10
2018-07-09T00:11:37.071Z,88.58
2018-07-09T00:14:06.093Z,89.31
2018-07-09T00:16:34.839Z,90.52
2018-07-09T00:19:04.008Z,90.86
2018-07-09T00:21:33.076Z,90.53
2018-07-09T00:24:02.063Z,90.50
2018-07-09T00:26:31.515Z,90.04
2018-07-09T00:29:00.531Z,90.71
2018-07-09T00:31:29.536Z,91.59
2018-07-09T00:33:58.677Z,90.45
2018-07-09T00:36:27.719Z,90.25
2018-07-09T00:38:57.119Z,89.11
2018-07-09T00:41:26.650Z,89.12
2018-07-09T00:43:55.591Z,89.17
2018-07-09T00:46:24.839Z,88.99
2018-07-09T00:48:53.968Z,89.61
2018-07-09T00:51:22.667Z,88.69
2018-07-09T00:53:51.686Z,88.05
2018-07-09T00:56:21.173Z,88.59
2018-07-09T00:58:50.250Z,88.65
2018-07-09T01:01:19.763Z,88.18
2018-07-09T01:03:49.302Z,88.11
2018-07-09T01:06:18.571Z,88.56
2018-07-09T01:08:47.487Z,88.74
2018-07-09T01:11:27.650Z,89.18
2018-07-09T01:13:56.730Z,88.30
2018-07-09T01:16:25.603Z,88.36
2018-07-09T01:18:55.045Z,87.72
2018-07-09T01:21:24.264Z,87.35
2018-07-09T01:23:53.325Z,87.19
2018-07-09T01:26:22.655Z,86.73
2018-07-09T01:28:52.014Z,87.19
2018-07-09T01:31:21.032Z,86.96
2018-07-09T01:33:50.350Z,85.06
2018-07-09T01:36:19.335Z,86.07
2018-07-09T01:38:48.325Z,85.66
2018-07-09T01:41:17.241Z,84.36
2018-07-09T01:43:46.316Z,84.75
2018-07-09T01:46:15.415Z,84.82
2018-07-09T01:48:44.719Z,84.45
2018-07-09T01:51:13.439Z,84.07
2018-07-09T01:53:42.996Z,83.93
2018-07-09T01:56:12.498Z,84.66
2018-07-09T01:58:41.154Z,84.20
2018-07-09T02:01:10.094Z,84.52
2018-07-09T02:03:39.304Z,84.12
2018-07-09T02:06:08.287Z,84.00
2018-07-09T02:08:37.404Z,84.39
2018-07-09T02:11:06.800Z,84.78
2018-07-09T02:13:36.403Z,84.52
2018-07-09T02:16:05.284Z,84.77
2018-07-09T02:18:34.694Z,85.48
2018-07-09T02:21:04.096Z,86.04
2018-07-09T02:23:32.980Z,86.22
2018-07-09T02:26:03.020Z,86.51
2018-07-09T02:28:32.156Z,86.22
2018-07-09T02:31:01.007Z,86.37
2018-07-09T02:33:30.412Z,85.54
2018-07-09T02:35:59.301Z,86.15
2018-07-09T02:38:28.003Z,85.60
2018-07-09T02:40:57.713Z,85.58
2018-07-09T02:43:26.464Z,84.96
2018-07-09T02:45:55.378Z,84.53
2018-07-09T02:48:24.420Z,84.75
2018-07-09T02:50:53.359Z,84.15
2018-07-09T02:53:22.824Z,83.94
2018-07-09T02:55:52.195Z,84.08
2018-07-09T02:58:21.286Z,83.65
2018-07-09T03:00:50.573Z,82.99
2018-07-09T03:03:19.444Z,82.74
2018-07-09T03:05:48.239Z,82.79
2018-07-09T03:08:17.045Z,82.42
2018-07-09T03:10:46.857Z,81.99
2018-07-09T03:13:15.935Z,82.39
2018-07-09T03:15:44.920Z,82.30
2018-07-09T03:18:14.077Z,81.57
2018-07-09T03:20:43.321Z,80.77
2018-07-09T03:23:12.427Z,81.58
2018-07-09T03:25:41.539Z,79.23
2018-07-09T03:28:11.045Z,79.38
2018-07-09T03:30:39.934Z,78.96
2018-07-09T03:33:09.165Z,80.02
2018-07-09T03:35:37.989Z,79.18
2018-07-09T03:38:07.022Z,80.05
2018-07-09T03:40:36.239Z,78.91
2018-07-09T03:43:04.978Z,78.56
2018-07-09T03:45:34.010Z,78.13
2018-07-09T03:48:03.409Z,77.65
2018-07-09T03:50:32.302Z,77.75
2018-07-09T03:53:05.027Z,77.77
2018-07-09T03:55:36.422Z,77.43
2018-07-09T03:58:05.852Z,78.51
2018-07-09T04:00:35.161Z,77.14
2018-07-09T04:03:04.178Z,76.81
2018-07-09T04:05:33.366Z,77.79
2018-07-09T04:08:02.614Z,77.41
2018-07-09T04:10:31.810Z,76.94
2018-07-09T04:13:02.937Z,77.04
2018-07-09T04:15:31.994Z,75.92
2018-07-09T04:18:01.175Z,75.89
2018-07-09T04:20:30.490Z,75.83
2018-07-09T04:22:59.269Z,75.96
2018-07-09T04:25:28.373Z,74.56
2018-07-09T04:27:57.712Z,74.17
2018-07-09T04:30:26.663Z,73.95
2018-07-09T04:32:55.994Z,73.94
2018-07-09T04:35:25.389Z,73.75
2018-07-09T04:37:54.718Z,73.79
2018-07-09T04:40:24.879Z,73.25
2018-07-09T04:42:55.870Z,73.44
2018-07-09T04:45:25.249Z,72.58
2018-07-09T04:47:54.535Z,72.75
2018-07-09T04:50:24.499Z,72.60
2018-07-09T04:52:53.475Z,72.73
2018-07-09T04:55:22.319Z,72.42
2018-07-09T04:57:51.659Z,72.44
2018-07-09T05:00:20.722Z,72.10
2018-07-09T05:02:49.672Z,70.65
2018-07-09T05:05:19.043Z,70.71
2018-07-09T05:07:47.889Z,69.97
2018-07-09T05:10:17.006Z,69.42
2018-07-09T05:12:46.481Z,69.25
2018-07-09T05:15:15.504Z,67.79
2018-07-09T05:17:44.411Z,68.41
2018-07-09T05:20:13.602Z,67.30
2018-07-09T05:22:42.604Z,66.01
2018-07-09T05:25:11.574Z,65.44
2018-07-09T05:27:41.010Z,66.23
2018-07-09T05:30:11.543Z,65.59
2018-07-09T05:32:41.773Z,65.29
2018-07-09T05:35:10.850Z,64.91
2018-07-09T05:37:40.019Z,64.17
2018-07-09T05:40:09.465Z,63.91
2018-07-09T05:42:39.126Z,62.67
2018-07-09T05:45:08.202Z,63.86
2018-07-09T05:47:37.721Z,62.27
2018-07-09T05:50:07.336Z,63.73
2018-07-09T05:52:36.575Z,62.61
2018-07-09T05:55:05.715Z,61.25
2018-07-09T05:57:35.543Z,61.35
2018-07-09T06:00:04.515Z,62.02
2018-07-09T06:02:34.141Z,61.32
2018-07-09T06:05:04.414Z,63.11
2018-07-09T06:07:33.359Z,61.75
2018-07-09T06:10:03.203Z,61.37
2018-07-09T06:12:32.109Z,60.81
2018-07-09T06:15:01.038Z,60.03
2018-07-09T06:17:30.898Z,58.68
2018-07-09T06:20:00.657Z,59.68
2018-07-09T06:22:29.610Z,57.06
2018-07-09T06:24:58.859Z,53.75
2018-07-09T06:27:27.861Z,53.57
2018-07-09T06:29:56.717Z,53.67
2018-07-09T06:32:26.117Z,54.45
2018-07-09T06:34:55.099Z,54.16
2018-07-09T06:37:24.031Z,55.69
2018-07-09T06:39:53.127Z,56.65
2018-07-09T06:42:22.114Z,58.17
2018-07-09T06:44:51.287Z,58.02
2018-07-09T06:47:20.424Z,57.27
2018-07-09T06:49:49.695Z,58.26
2018-07-09T06:52:18.479Z,57.71
2018-07-09T06:54:47.555Z,56.30
2018-07-09T06:57:16.398Z,56.63
2018-07-09T06:59:45.550Z,55.46
2018-07-09T07:02:15.018Z,53.08
2018-07-09T07:04:44.273Z,48.36
2018-07-09T07:07:13.218Z,42.50
2018-07-09T07:09:42.070Z,41.09
2018-07-09T07:12:11.128Z,41.38
2018-07-09T07:14:40.146Z,41.09
2018-07-09T07:17:08.865Z,38.95
2018-07-09T07:19:37.823Z,37.98
2018-07-09T07:22:07.841Z,37.35
2018-07-09T07:24:36.932Z,35.52
2018-07-09T07:27:05.939Z,39.40
2018-07-09T07:29:34.823Z,39.83
2018-07-09T07:32:03.666Z,41.95
2018-07-09T07:34:32.624Z,43.71
2018-07-09T07:37:02.141Z,45.05
2018-07-09T07:39:31.143Z,45.91
2018-07-09T07:41:59.986Z,48.46
2018-07-09T07:44:28.821Z,47.83
2018-07-09T07:46:58.378Z,47.78
2018-07-09T07:49:27.814Z,42.90
2018-07-09T07:51:57.004Z,42.27
2018-07-09T07:54:26.614Z,44.90
2018-07-09T07:56:55.479Z,43.77
2018-07-09T07:59:24.363Z,42.21
2018-07-09T08:01:53.510Z,39.87
2018-07-09T08:04:22.480Z,40.45
2018-07-09T08:06:51.495Z,42.34
2018-07-09T08:09:21.732Z,42.25
2018-07-09T08:11:50.711Z,43.83
2018-07-09T08:14:21.216Z,42.44
2018-07-09T08:16:50.711Z,41.20
2018-07-09T08:19:19.833Z,39.56
2018-07-09T08:21:49.058Z,38.34
2018-07-09T08:24:17.857Z,37.97
2018-07-09T08:26:48.586Z,36.53
2018-07-09T08:29:17.610Z,37.30
2018-07-09T08:31:48.860Z,36.30
2018-07-09T08:34:17.573Z,36.99
2018-07-09T08:36:46.532Z,35.11
2018-07-09T08:39:15.690Z,38.76
2018-07-09T08:41:44.908Z,39.72
2018-07-09T08:44:14.036Z,41.00
2018-07-09T08:46:43.530Z,37.60
2018-07-09T08:49:13.360Z,38.60
2018-07-09T08:51:43.330Z,36.81
2018-07-09T08:54:12.775Z,36.74
2018-07-09T08:56:41.563Z,36.79
2018-07-09T08:59:10.882Z,38.07
2018-07-09T09:01:40.686Z,37.77
2018-07-09T09:04:09.491Z,38.13
2018-07-09T09:06:39.379Z,38.31
2018-07-09T09:09:08.905Z,36.48
2018-07-09T09:11:37.725Z,36.87
2018-07-09T09:14:07.118Z,37.41
2018-07-09T09:16:37.101Z,37.18
2018-07-09T09:19:06.013Z,38.55
2018-07-09T09:21:35.516Z,40.97
2018-07-09T09:24:04.778Z,38.80
2018-07-09T09:26:33.605Z,37.74
2018-07-09T09:29:02.451Z,39.87
2018-07-09T09:31:32.285Z,41.76
2018-07-09T09:34:01.192Z,44.87
2018-07-09T09:36:30.088Z,45.25
2018-07-09T09:38:59.511Z,45.57
2018-07-09T09:41:28.591Z,48.17
2018-07-09T09:43:57.692Z,47.08
2018-07-09T09:46:26.717Z,46.09
2018-07-09T09:51:37.049Z,46.83
2018-07-09T09:54:06.572Z,45.86
2018-07-09T09:56:35.688Z,45.88
2018-07-09T09:59:04.882Z,45.49
2018-07-09T10:01:34.600Z,44.82
2018-07-09T10:04:03.337Z,44.85
2018-07-09T10:06:32.602Z,45.26
2018-07-09T10:09:02.131Z,44.98
2018-07-09T10:11:30.956Z,45.04
2018-07-09T10:14:00.269Z,45.51
2018-07-09T10:16:29.723Z,44.67
2018-07-09T10:18:58.626Z,43.89
2018-07-09T10:21:27.439Z,46.33
2018-07-09T10:23:57.179Z,45.18
2018-07-09T10:26:26.250Z,45.01
2018-07-09T10:28:55.561Z,45.80
2018-07-09T10:31:24.349Z,45.67
2018-07-09T10:33:53.352Z,48.31
2018-07-09T10:36:22.434Z,48.12
2018-07-09T10:38:51.771Z,46.98
2018-07-09T10:41:20.839Z,46.95
2018-07-09T10:43:50.019Z,46.62
2018-07-09T10:46:19.290Z,46.81
2018-07-09T10:48:48.208Z,47.29
2018-07-09T10:51:17.211Z,46.24
2018-07-09T10:53:46.827Z,46.71
2018-07-09T10:56:15.918Z,46.02
2018-07-09T10:58:44.890Z,45.79
2018-07-09T11:01:14.254Z,47.89
2018-07-09T11:03:43.514Z,48.34
2018-07-09T11:06:12.508Z,48.27
2018-07-09T11:08:41.690Z,47.82
2018-07-09T11:11:10.507Z,48.30
2018-07-09T11:13:39.883Z,51.00
2018-07-09T11:16:09.089Z,50.07
2018-07-09T11:18:38.099Z,48.94
2018-07-09T11:21:07.193Z,49.45
2018-07-09T11:23:36.507Z,51.31
2018-07-09T11:26:05.525Z,50.39
2018-07-09T11:28:34.382Z,49.55
2018-07-09T11:31:03.903Z,51.65
2018-07-09T11:33:32.988Z,53.45
2018-07-09T11:36:02.658Z,54.16
2018-07-09T11:38:32.106Z,53.17
2018-07-09T11:41:01.200Z,51.18
2018-07-09T11:43:30.192Z,51.54
2018-07-09T11:45:59.303Z,52.26
2018-07-09T11:48:28.564Z,51.55
2018-07-09T11:50:57.595Z,50.50
2018-07-09T11:53:27.019Z,50.58
2018-07-09T11:55:56.070Z,50.04
2018-07-09T11:58:25.242Z,49.51
2018-07-09T12:00:54.106Z,50.17
2018-07-09T12:03:22.829Z,49.90
2018-07-09T12:05:51.636Z,50.08
2018-07-09T12:08:20.474Z,49.43
2018-07-09T12:10:49.445Z,49.00
2018-07-09T12:13:18.719Z,47.83
2018-07-09T12:15:47.989Z,48.40
2018-07-09T12:18:17.216Z,49.11
2018-07-09T12:20:46.953Z,48.55
2018-07-09T12:23:16.451Z,49.41
2018-07-09T12:25:45.200Z,48.52
2018-07-09T12:28:14.022Z,50.58
2018-07-09T12:30:43.453Z,50.29
2018-07-09T12:33:12.541Z,51.68
2018-07-09T12:35:41.674Z,50.20
2018-07-09T12:38:10.919Z,51.03
2018-07-09T12:40:39.817Z,50.07
2018-07-09T12:43:09.200Z,51.93
2018-07-09T12:45:38.660Z,52.23
2018-07-09T12:48:07.817Z,51.57
2018-07-09T12:50:36.818Z,50.36
2018-07-09T12:53:06.068Z,49.97
2018-07-09T12:55:34.991Z,52.33
2018-07-09T12:58:04.011Z,51.47
2018-07-09T13:00:33.379Z,51.19
2018-07-09T13:03:02.430Z,50.99
2018-07-09T13:05:31.718Z,49.06
2018-07-09T13:08:00.715Z,51.33
2018-07-09T13:10:30.511Z,52.59
2018-07-09T13:12:59.611Z,53.18
2018-07-09T13:15:29.110Z,53.22
2018-07-09T13:17:58.191Z,52.41
2018-07-09T13:20:27.259Z,52.95
2018-07-09T13:22:56.630Z,51.59
2018-07-09T13:25:26.392Z,52.42
2018-07-09T13:27:55.337Z,52.45
2018-07-09T13:30:24.976Z,52.00
2018-07-09T13:32:54.406Z,53.06
2018-07-09T13:35:23.916Z,54.07
2018-07-09T13:37:52.988Z,53.08
2018-07-09T13:40:22.147Z,52.28
2018-07-09T13:42:51.240Z,53.98
2018-07-09T13:45:20.561Z,52.26
2018-07-09T13:47:49.428Z,51.82
2018-07-09T13:50:18.800Z,53.64
2018-07-09T13:52:48.238Z,54.46
2018-07-09T13:55:17.236Z,54.51
2018-07-09T13:57:46.743Z,53.15
2018-07-09T14:00:15.945Z,52.71
2018-07-09T14:02:45.045Z,53.79
2018-07-09T14:05:13.825Z,52.78
2018-07-09T14:07:42.738Z,52.85
2018-07-09T14:10:11.728Z,52.29
2018-07-09T14:12:40.830Z,51.94
2018-07-09T14:15:10.115Z,52.22
2018-07-09T14:17:39.292Z,52.42
2018-07-09T14:20:36.850Z,52.05
2018-07-09T14:23:06.716Z,50.51
2018-07-09T14:25:35.894Z,51.51
2018-07-09T14:28:06.065Z,51.25
2018-07-09T14:30:35.431Z,51.61
2018-07-09T14:33:04.911Z,51.86
2018-07-09T14:35:34.421Z,51.43
2018-07-09T14:38:03.528Z,51.78
2018-07-09T14:40:32.417Z,52.12
2018-07-09T14:43:02.122Z,52.27
2018-07-09T14:45:31.299Z,51.12
2018-07-09T14:48:00.093Z,52.14
2018-07-09T14:50:29.611Z,51.75
2018-07-09T14:52:58.627Z,52.31
2018-07-09T14:55:27.819Z,53.40
2018-07-09T14:57:57.387Z,54.18
2018-07-09T15:00:26.530Z,54.45
2018-07-09T15:02:56.107Z,55.25
2018-07-09T15:05:26.336Z,55.77
2018-07-09T15:07:55.345Z,55.55
2018-07-09T15:10:24.423Z,54.89
2018-07-09T15:12:53.856Z,55.59
2018-07-09T15:15:23.650Z,56.24
2018-07-09T15:17:52.472Z,55.57
2018-07-09T15:20:21.635Z,56.97
2018-07-09T15:22:51.151Z,56.39
2018-07-09T15:25:20.257Z,56.43
2018-07-09T15:27:49.291Z,56.22
2018-07-09T15:30:17.987Z,56.46
2018-07-09T15:32:46.807Z,55.68
2018-07-09T15:35:16.163Z,55.78
2018-07-09T15:37:45.302Z,55.30
2018-07-09T15:40:15.051Z,55.81
2018-07-09T15:42:44.469Z,55.74
2018-07-09T15:45:13.679Z,55.41
2018-07-09T15:47:42.539Z,55.63
2018-07-09T15:50:11.435Z,55.43
2018-07-09T15:52:40.327Z,56.08
2018-07-09T15:55:09.395Z,55.66
2018-07-09T15:57:38.724Z,55.29
2018-07-09T16:00:07.909Z,55.10
2018-07-09T16:02:37.002Z,55.77
2018-07-09T16:05:06.763Z,55.66
2018-07-09T16:07:35.943Z,56.04
2018-07-09T16:10:04.923Z,56.29
2018-07-09T16:12:34.070Z,55.73
2018-07-09T16:15:03.280Z,55.61
2018-07-09T16:17:32.431Z,55.79
2018-07-09T16:20:01.722Z,56.92
2018-07-09T16:22:31.112Z,57.26
2018-07-09T16:25:00.126Z,56.59
2018-07-09T16:27:29.367Z,56.53
2018-07-09T16:29:58.260Z,56.96
2018-07-09T16:32:27.103Z,56.37
2018-07-09T16:34:56.197Z,56.95
2018-07-09T16:37:25.396Z,56.63
2018-07-09T16:39:54.387Z,56.01
2018-07-09T16:42:24.565Z,56.00
2018-07-09T16:44:54.040Z,56.64
2018-07-09T16:47:23.106Z,57.39
2018-07-09T16:49:52.182Z,57.35
2018-07-09T16:52:21.222Z,58.03
2018-07-09T16:54:50.101Z,57.48
2018-07-09T16:57:19.199Z,57.16
2018-07-09T16:59:48.083Z,57.31
2018-07-09T17:02:17.570Z,58.01
2018-07-09T17:04:46.947Z,58.50
2018-07-09T17:07:15.893Z,58.77
2018-07-09T17:09:44.786Z,58.57
2018-07-09T17:12:14.105Z,59.63
2018-07-09T17:14:43.071Z,59.38
2018-07-09T17:17:12.079Z,60.14
2018-07-09T17:19:41.312Z,60.07
2018-07-09T17:22:10.778Z,60.49
2018-07-09T17:24:39.664Z,60.46
2018-07-09T17:27:08.899Z,61.37
2018-07-09T17:29:37.767Z,61.24
2018-07-09T17:32:08.146Z,62.45
2018-07-09T17:34:37.291Z,62.46
2018-07-09T17:37:06.149Z,62.85
2018-07-09T17:39:34.979Z,63.81
2018-07-09T17:42:04.317Z,63.26
2018-07-09T17:44:33.582Z,63.78
2018-07-09T17:47:02.543Z,64.22
2018-07-09T17:49:31.911Z,64.74
2018-07-09T17:52:00.964Z,64.50
2018-07-09T17:54:29.819Z,65.24
2018-07-09T17:56:59.164Z,64.92
2018-07-09T17:59:28.539Z,65.06
2018-07-09T18:01:57.369Z,64.46
2018-07-09T18:04:26.549Z,65.23
2018-07-09T18:06:55.556Z,65.60
2018-07-09T18:09:28.692Z,65.74
2018-07-09T18:12:03.468Z,66.36
2018-07-09T18:14:36.612Z,66.52
2018-07-09T18:17:05.599Z,66.82
2018-07-09T18:19:34.757Z,67.19
2018-07-09T18:22:04.127Z,67.11
2018-07-09T18:24:33.103Z,67.82
2018-07-09T18:27:01.798Z,68.36
2018-07-09T18:29:31.040Z,68.60
2018-07-09T18:31:59.910Z,68.45
2018-07-09T18:34:28.951Z,68.35
2018-07-09T18:36:58.303Z,69.14
2018-07-09T18:39:27.182Z,69.72
2018-07-09T18:41:56.256Z,70.20
2018-07-09T18:44:25.419Z,70.30
2018-07-09T18:46:54.415Z,71.13
2018-07-09T18:49:23.175Z,70.98
2018-07-09T18:51:52.495Z,72.29
2018-07-09T18:54:21.375Z,73.10
2018-07-09T18:56:50.140Z,74.47
2018-07-09T18:59:19.642Z,73.96
2018-07-09T19:01:48.870Z,73.99
2018-07-09T19:04:18.035Z,74.32
2018-07-09T19:07:06.175Z,74.28
2018-07-09T19:09:35.575Z,75.95
2018-07-09T19:12:05.645Z,76.80
2018-07-09T19:14:40.280Z,79.47
2018-07-09T19:18:20.028Z,80.75
2018-07-09T19:21:28.490Z,80.08
2018-07-09T19:23:56.358Z,83.69
2018-07-09T19:26:23.874Z,85.12
2018-07-09T19:28:51.854Z,87.18
2018-07-09T19:31:19.385Z,87.12
2018-07-09T19:33:47.053Z,85.76
2018-07-09T19:36:14.731Z,86.68
2018-07-09T19:38:42.097Z,86.86
2018-07-09T19:41:10.029Z,89.66
2018-07-09T19:43:38.372Z,90.03
2018-07-09T19:46:05.986Z,91.42
2018-07-09T19:48:33.259Z,93.70
2018-07-09T19:51:01.108Z,98.09
2018-07-09T19:53:28.575Z,98.67
2018-07-09T19:55:56.532Z,99.02
2018-07-09T19:58:24.038Z,100.00
2018-07-09T20:00:51.360Z,100.00
2018-07-09T20:03:18.973Z,100.00
2018-07-09T20:05:46.690Z,99.66
2018-07-09T20:08:14.012Z,97.95
2018-07-09T20:10:46.599Z,97.93
2018-07-09T20:13:19.510Z,100.00
2018-07-09T20:15:52.032Z,99.57
2018-07-09T20:18:19.377Z,99.64
2018-07-09T20:20:47.322Z,99.55
2018-07-09T20:23:14.672Z,100.00
2018-07-09T20:25:42.005Z,99.74
2018-07-09T20:28:09.773Z,99.59
2018-07-09T20:30:37.162Z,100.00
2018-07-09T20:33:04.507Z,100.00
2018-07-09T20:35:32.171Z,100.00
2018-07-09T20:37:59.512Z,100.00
2018-07-09T20:40:27.069Z,100.00
2018-07-09T20:42:54.963Z,100.00
2018-07-09T20:45:22.503Z,100.00
2018-07-09T20:47:49.957Z,100.00
2018-07-09T20:50:17.459Z,100.00
2018-07-09T20:52:44.798Z,100.00
2018-07-09T20:55:12.158Z,100.00
2018-07-09T20:57:40.119Z,100.00
2018-07-09T21:00:07.453Z,100.00
2018-07-09T21:02:34.787Z,100.00
2018-07-09T21:05:02.314Z,100.00
2018-07-09T21:07:29.920Z,100.00
2018-07-09T21:09:57.253Z,100.00
2018-07-09T21:12:24.990Z,100.00
2018-07-09T21:14:52.522Z,100.00
2018-07-09T21:17:19.978Z,100.00
2018-07-09T21:19:47.342Z,100.00
2018-07-09T21:22:14.763Z,100.00
2018-07-09T21:24:42.244Z,100.00
2018-07-09T21:27:09.929Z,100.00
2018-07-09T21:29:37.266Z,100.00
2018-07-09T21:32:04.620Z,100.00
2018-07-09T21:34:32.400Z,100.00
2018-07-09T21:36:59.740Z,100.00
2018-07-09T21:39:27.070Z,99.69
2018-07-09T21:41:54.421Z,99.56
2018-07-09T21:44:21.912Z,100.00
2018-07-09T21:46:49.250Z,100.00
2018-07-09T21:49:16.958Z,100.00
2018-07-09T21:51:44.495Z,100.00
2018-07-09T21:54:11.827Z,100.00
2018-07-09T21:56:39.524Z,100.00
2018-07-09T21:59:06.970Z,100.00
2018-07-09T22:01:34.280Z,100.00
2018-07-09T22:04:02.206Z,100.00
2018-07-09T22:06:29.539Z,100.00
2018-07-09T22:08:56.894Z,100.00
2018-07-09T22:11:24.267Z,100.00
2018-07-09T22:13:51.718Z,100.00
2018-07-09T22:16:19.118Z,100.00
2018-07-09T22:18:46.948Z,100.00
2018-07-09T22:21:14.405Z,100.00
2018-07-09T22:23:41.751Z,100.00
2018-07-09T22:26:09.639Z,100.00
2018-07-09T22:28:37.094Z,100.00
2018-07-09T22:31:06.198Z,100.00
2018-07-09T22:33:35.235Z,100.00
2018-07-09T22:36:04.065Z,100.00
2018-07-09T22:38:33.254Z,100.00
2018-07-09T22:41:02.490Z,100.00
2018-07-09T22:43:42.215Z,100.00
2018-07-09T22:46:11.740Z,100.00
2018-07-09T22:48:40.599Z,100.00
2018-07-09T22:51:09.584Z,100.00
2018-07-09T22:53:38.609Z,100.00
2018-07-09T22:56:10.195Z,100.00
2018-07-09T22:58:41.010Z,100.00
2018-07-09T23:01:10.804Z,100.00
2018-07-09T23:03:39.806Z,100.00
2018-07-09T23:06:09.525Z,100.00
2018-07-09T23:08:38.599Z,100.00
2018-07-09T23:13:24.426Z,100.00
2018-07-09T23:17:01.621Z,100.00
2018-07-09T23:22:24.682Z,100.00
2018-07-09T23:24:52.019Z,100.00
2018-07-09T23:27:19.500Z,100.00
2018-07-09T23:29:47.391Z,100.00
2018-07-09T23:32:14.931Z,100.00
2018-07-09T23:34:42.355Z,100.00
2018-07-09T23:37:10.306Z,100.00
2018-07-09T23:39:37.654Z,100.00
2018-07-09T23:42:05.087Z,100.00
2018-07-09T23:44:32.552Z,100.00
2018-07-09T23:46:59.883Z,100.00
2018-07-09T23:49:27.206Z,100.00
2018-07-09T23:51:54.932Z,100.00
2018-07-09T23:54:22.254Z,100.00
2018-07-09T23:56:58.031Z,100.00
2018-07-09T23:59:37.865Z,100.00
